Noatak Airport Noatak US
ICAO: PAWN
IATA:
Category: Medium
Scheduled Services:

Elevation: 88 ft
TransAlt. 18000 ft.

Airport Communications:
AWOS 3:135.75
ANCHORAGE CNTR:119.2
KOTZEBUE RDO:122.4
CTAF/UNICOM:122.8

PAWN Zoom In..

Runways:

(A) RW 01 length 3992 ft width 60 ft
---- / hdg 7

(B) RW 19 length 3992 ft width 60 ft
---- / hdg 187

Location; PAWN
Day. 23 / Time. 02.56 Zulu
* Altimeter: 30.10
* Temperature: 18° c. 64.4°f.
* Wind from: 270° Speed 06 kn.
Dewpoint: 14° c.
Visibility: 10 Statute Miles.
Clouds: Scattered 4900 ft.
Clouds: Overcast 6000 ft.

PAWN 230256Z AUTO 27006KT 10SM SCT049 OVC060 18/14 A3010 RMK AO2 SLP207 T01780139 58005


Wind From 270°
Speed 06 kn.

 
 
jpsmedia.com for Web Design worldairports.se 2018   terms of use